Little, Indiana
Current Conditions -  °F | °C
As of 8:35 AM on Friday 31 Oct 2014 (Local Time) from KDCY Reporting Station
Overcast Overcast  
Wind Chill: 40°   Ceiling: 4000
Heat Index: 46°   Visibility: 10mi
Dew Point: 44°   Wind: 10mph
Humidity: 93%   Direction: 320°NW
Pressure: 30.05"   Gusts: NA
Location:  38.4723°N, 87.3105°W
Report Text: KDCY 311335Z AUTO 32009KT 10SM OVC040 08/07 A3005 RMK AO2 T00750065
Loading
Personal Weather Stations






























Interactive Weather Map
Tropical Storm Tracking
New forecast layout! Learn more

10-Day Weather Forecast

Advertisements
Track Severe Weather on mobile